Meath Environmental Platform

Observations for Trim Market St

Time AQI Temp °C Hum % Pres Pa CO μg/m³ H₂S μg/m³ NO μg/m³ NO₂ μg/m³ O₃ μg/m³ SO₂ μg/m³ PM1 μg/m³ PM2.5 μg/m³ PM10 μg/m³
Friday 10 July 2026
11:44 1 36.2 33 66,503 0 0 0 1.75 23.41 1.17 1.43 4.25 4.68
11:41 1 36.2 33 66,469 0 0 0 1.05 24.56 0.77 0.71 3.72 4.09
11:39 1 36.1 34 66,457 0 0 0 0 8.62 1.12 1.43 4.76 5
11:38 1 36.1 34 66,451 0 0 0 5.29 27.38 1.34 0.71 4.22 4.64
11:36 1 35.9 34 66,425 0 0 0 6.9 30.81 0.38 2.85 5.28 5.81
11:34 1 35.6 34 66,414 0 0 0 0.57 26.39 0.71 1.43 4.74 5.21
11:32 1 35.5 34 66,347 0 0 0 10.8 28.72 0.07 2.14 5.81 5.85
11:26 1 35.1 34 66,382 0 0 0 0 33.3 1.51 1.43 4.75 5
11:25 1 35.2 34 66,429 0 0 0 0 22.14 2.01 2.14 5.29 5.82
11:19 1 35.8 33 66,447 0 0 0 0.03 9.82 1.62 1.43 4.78 5.26
11:18 1 35.9 33 66,476 0 0 0 0 28.36 1.51 1.43 4.78 5.26
11:17 1 36 33 66,480 0 0 0 6.49 12.15 1.22 1.43 5.33 5.86
11:16 1 36 33 66,483 0 0 0 20.59 0 0 2.14 4.79 5.27
11:15 1 36 33 66,487 0 0 0 8.89 19.12 0 2.14 4.79 5.27
11:14 1 36.1 33 66,491 0 0 0 10.17 14.75 1.18 2.85 5.33 5.86
11:13 1 36.1 33 66,501 0 0 0 0 26.46 0.96 1.43 4.26 4.69
11:12 1 36.1 33 66,513 0 0 0 5.61 18.57 1.8 2.14 5.35 5.88
11:11 1 36.1 33 66,529 0 0 0 0 28.98 1.25 1.43 5.34 5.88
11:10 1 36.1 33 66,550 0 0 0 0 14.29 2.32 2.14 5.34 5.88
11:09 1 36.2 32 66,574 0 0 0 0 12.42 1.57 1.43 4.29 4.72